WXM80 ListenWXM80 Stop

You find our weather info also at:

UK Metoffice

WeatherCloud

Weather Underground

Northeastern Weather Network

AWEKAS

Citizen Weather Observer Program (CWOP)

HAMweather, WeatherForYou, PWS Weather


Weather Underground History page Text

Daily Summary for September 12, 2016 Units:  English    Metric   Both
« Previous Day
Next Day »
Daily Weekly Monthly Yearly Custom
  High: Low: Average:
Temperature: 80.9 °F 61.1 °F 69.5 °F
Dew Point: 60.2 °F 47.9 °F 55.7 °F
Humidity: 82 % 33 % 63 %
Wind Speed: 8.0 mph 0.0 mph 1.9 mph
Wind Gust: 15.0 mph - -
Wind:- - East
Pressure: 30.24 in 30.13 in -
Precipitation: 0.00 in    
Historical Graphs
 
 
Tabular Data for September 12, 2016
Time Temperature Dew Point Pressure Wind Wind Speed Wind Gust Humidity Rainfall Rate (Hourly)
00:09 68.0 °F 51.2 °F 30.13 in North 5.0 mph 11.5 mph 55 % 0.00 in
00:14 67.9 °F 52.1 °F 30.13 in NNE 4.8 mph 9.2 mph 57 % 0.00 in
00:19 67.8 °F 52.5 °F 30.13 in NNE 5.8 mph 9.2 mph 58 % 0.00 in
00:29 67.6 °F 52.8 °F 30.14 in NNE 6.1 mph 12.7 mph 59 % 0.00 in
00:34 67.5 °F 52.7 °F 30.14 in North 6.2 mph 10.4 mph 59 % 0.00 in
00:39 67.4 °F 53.5 °F 30.14 in NNE 4.0 mph 11.5 mph 61 % 0.00 in
00:45 67.4 °F 53.5 °F 30.14 in NNE 4.6 mph 11.5 mph 61 % 0.00 in
00:50 67.2 °F 53.3 °F 30.14 in North 6.9 mph 12.0 mph 61 % 0.00 in
00:55 67.1 °F 53.2 °F 30.14 in NNE 5.1 mph 10.4 mph 61 % 0.00 in
01:00 67.1 °F 53.2 °F 30.14 in NNE 6.1 mph 11.5 mph 61 % 0.00 in
01:05 67.0 °F 53.5 °F 30.14 in NNE 5.5 mph 11.5 mph 62 % 0.00 in
01:10 66.8 °F 53.4 °F 30.14 in NNE 6.3 mph 11.5 mph 62 % 0.00 in
01:15 66.8 °F 52.9 °F 30.14 in NE 8.0 mph 11.5 mph 61 % 0.00 in
01:20 66.7 °F 53.3 °F 30.14 in NNE 6.3 mph 11.5 mph 62 % 0.00 in
01:25 66.6 °F 53.2 °F 30.14 in NNE 7.6 mph 15.0 mph 62 % 0.00 in
01:30 66.5 °F 53.5 °F 30.14 in ENE 7.5 mph 13.0 mph 63 % 0.00 in
01:36 66.5 °F 53.9 °F 30.14 in North 5.0 mph 12.0 mph 64 % 0.00 in
01:41 66.3 °F 53.3 °F 30.14 in North 7.0 mph 12.0 mph 63 % 0.00 in
01:45 66.2 °F 53.3 °F 30.14 in North 7.0 mph 13.0 mph 63 % 0.00 in
01:50 66.2 °F 54.1 °F 30.14 in NNE 5.0 mph 12.0 mph 65 % 0.00 in
01:55 66.1 °F 53.1 °F 30.14 in NNW 6.7 mph 11.5 mph 63 % 0.00 in
02:01 65.9 °F 52.9 °F 30.14 in North 4.5 mph 6.9 mph 63 % 0.00 in
02:06 65.8 °F 53.7 °F 30.14 in North 5.5 mph 8.1 mph 65 % 0.00 in
02:11 65.8 °F 53.7 °F 30.14 in NNE 5.6 mph 12.7 mph 65 % 0.00 in
02:16 65.7 °F 53.6 °F 30.15 in ENE 3.8 mph 8.0 mph 65 % 0.00 in
02:21 65.6 °F 53.5 °F 30.14 in NNE 3.6 mph 5.8 mph 65 % 0.00 in
02:26 65.5 °F 53.8 °F 30.14 in NNE 3.2 mph 8.1 mph 66 % 0.00 in
02:31 65.4 °F 53.7 °F 30.15 in North 7.9 mph 9.2 mph 66 % 0.00 in
02:36 65.3 °F 53.6 °F 30.14 in North 6.3 mph 10.4 mph 66 % 0.00 in
02:41 65.2 °F 53.6 °F 30.15 in NE 5.4 mph 9.0 mph 66 % 0.00 in
02:46 65.1 °F 53.5 °F 30.15 in NNW 1.7 mph 6.0 mph 66 % 0.00 in
02:51 65.1 °F 53.5 °F 30.14 in NNE 1.0 mph 3.5 mph 66 % 0.00 in
02:57 65.0 °F 53.8 °F 30.15 in NNE 1.2 mph 3.5 mph 67 % 0.00 in
03:02 64.9 °F 54.1 °F 30.15 in NNE 2.2 mph 6.0 mph 68 % 0.00 in
03:07 64.9 °F 53.7 °F 30.15 in NNE 4.5 mph 8.1 mph 67 % 0.00 in
03:17 64.7 °F 53.5 °F 30.15 in NE 5.4 mph 8.1 mph 67 % 0.00 in
03:22 64.6 °F 53.4 °F 30.15 in ENE 1.8 mph 5.8 mph 67 % 0.00 in
03:27 64.5 °F 53.3 °F 30.14 in NNW 2.6 mph 6.0 mph 67 % 0.00 in
03:32 64.4 °F 53.6 °F 30.15 in NNE 3.8 mph 8.0 mph 68 % 0.00 in
03:37 64.3 °F 53.5 °F 30.15 in North 1.8 mph 4.0 mph 68 % 0.00 in
03:42 64.3 °F 53.9 °F 30.15 in NNE 1.8 mph 5.0 mph 69 % 0.00 in
03:48 64.2 °F 53.8 °F 30.15 in NE 2.4 mph 5.8 mph 69 % 0.00 in
03:53 64.1 °F 53.7 °F 30.15 in NE 4.4 mph 5.8 mph 69 % 0.00 in
03:58 64.1 °F 54.1 °F 30.15 in NNE 2.4 mph 5.8 mph 70 % 0.00 in
04:03 64.0 °F 54.0 °F 30.15 in NNE 1.2 mph 3.5 mph 70 % 0.00 in
04:08 64.0 °F 54.0 °F 30.15 in North 3.9 mph 5.0 mph 70 % 0.00 in
04:13 63.9 °F 54.3 °F 30.16 in ENE 2.2 mph 3.5 mph 71 % 0.00 in
04:18 63.8 °F 54.2 °F 30.16 in North 0.9 mph 5.8 mph 71 % 0.00 in
04:23 63.8 °F 54.2 °F 30.16 in North 2.1 mph 4.6 mph 71 % 0.00 in
04:28 63.7 °F 54.1 °F 30.17 in NNE 4.0 mph 8.1 mph 71 % 0.00 in
04:33 63.6 °F 54.0 °F 30.17 in North 1.6 mph 5.8 mph 71 % 0.00 in
04:39 63.7 °F 54.9 °F 30.17 in NE 2.4 mph 5.8 mph 73 % 0.00 in
04:44 63.6 °F 54.8 °F 30.17 in NNE 4.5 mph 9.2 mph 73 % 0.00 in
04:49 63.5 °F 55.1 °F 30.17 in NE 3.3 mph 4.6 mph 74 % 0.00 in
04:54 63.5 °F 54.3 °F 30.17 in NE 1.5 mph 3.0 mph 72 % 0.00 in
04:59 63.4 °F 54.2 °F 30.17 in NE 1.7 mph 3.5 mph 72 % 0.00 in
05:04 63.3 °F 54.5 °F 30.17 in NNE 3.4 mph 4.6 mph 73 % 0.00 in
05:09 63.3 °F 54.9 °F 30.17 in ENE 1.8 mph 5.0 mph 74 % 0.00 in
05:14 63.2 °F 54.8 °F 30.17 in North 2.8 mph 3.5 mph 74 % 0.00 in
05:19 63.1 °F 54.3 °F 30.17 in ENE 1.8 mph 3.5 mph 73 % 0.00 in
05:24 63.1 °F 54.7 °F 30.18 in ENE 1.8 mph 2.3 mph 74 % 0.00 in
05:29 63.0 °F 54.6 °F 30.18 in NNE 1.0 mph 3.5 mph 74 % 0.00 in
05:34 63.0 °F 54.6 °F 30.18 in ENE 3.8 mph 8.1 mph 74 % 0.00 in
05:39 62.9 °F 54.1 °F 30.18 in ENE 2.9 mph 4.0 mph 73 % 0.00 in
05:45 62.9 °F 54.1 °F 30.18 in NE 2.2 mph 8.1 mph 73 % 0.00 in
05:50 62.9 °F 54.5 °F 30.18 in ENE 1.6 mph 2.3 mph 74 % 0.00 in
05:55 62.9 °F 54.5 °F 30.18 in ENE 0.8 mph 2.3 mph 74 % 0.00 in
06:00 62.9 °F 54.5 °F 30.18 in ENE 0.8 mph 2.3 mph 74 % 0.00 in
06:05 62.9 °F 54.5 °F 30.18 in ENE 1.8 mph 3.5 mph 74 % 0.00 in
06:10 62.9 °F 54.9 °F 30.19 in NE 1.0 mph 3.5 mph 75 % 0.00 in
06:15 62.9 °F 54.5 °F 30.19 in NE 0.9 mph 2.3 mph 74 % 0.00 in
06:21 62.9 °F 54.9 °F 30.19 in NE 1.0 mph 3.0 mph 75 % 0.00 in
06:26 62.9 °F 55.2 °F 30.19 in NE 2.0 mph 4.0 mph 76 % 0.00 in
06:31 62.9 °F 55.2 °F 30.19 in Calm   4.0 mph 76 % 0.00 in
06:36 62.8 °F 55.1 °F 30.19 in Calm   3.0 mph 76 % 0.00 in
06:41 62.8 °F 55.1 °F 30.20 in NE 2.1 mph 5.0 mph 76 % 0.00 in
06:51 62.9 °F 55.2 °F 30.20 in ENE 2.0 mph 6.0 mph 76 % 0.00 in
06:56 62.9 °F 55.6 °F 30.20 in ENE 1.6 mph 3.5 mph 77 % 0.00 in
07:01 63.0 °F 55.7 °F 30.21 in ENE 0.5 mph 2.3 mph 77 % 0.00 in
07:06 63.1 °F 55.4 °F 30.21 in ENE 1.1 mph 3.5 mph 76 % 0.00 in
07:11 63.2 °F 55.5 °F 30.21 in ENE 3.8 mph 6.9 mph 76 % 0.00 in
07:16 63.3 °F 55.6 °F 30.21 in ENE 1.9 mph 3.0 mph 76 % 0.00 in
07:21 63.6 °F 55.5 °F 30.21 in NE 3.3 mph 5.0 mph 75 % 0.00 in
07:26 63.8 °F 55.7 °F 30.21 in NE 2.8 mph 3.5 mph 75 % 0.00 in
07:31 64.0 °F 55.9 °F 30.21 in ENE 2.7 mph 7.0 mph 75 % 0.00 in
07:36 64.2 °F 56.1 °F 30.22 in NE 1.7 mph 4.6 mph 75 % 0.00 in
07:41 64.3 °F 55.8 °F 30.22 in NE 2.7 mph 3.5 mph 74 % 0.00 in
07:47 64.5 °F 56.4 °F 30.22 in ENE 2.2 mph 3.5 mph 75 % 0.00 in
07:52 64.7 °F 56.6 °F 30.22 in NE 2.3 mph 3.5 mph 75 % 0.00 in
07:57 65.0 °F 56.5 °F 30.22 in ENE 2.8 mph 5.8 mph 74 % 0.00 in
08:02 65.2 °F 56.7 °F 30.22 in NE 3.3 mph 4.6 mph 74 % 0.00 in
08:07 65.3 °F 56.8 °F 30.22 in ENE 2.5 mph 5.0 mph 74 % 0.00 in
08:12 65.4 °F 56.9 °F 30.22 in NE 2.3 mph 5.8 mph 74 % 0.00 in
08:17 65.5 °F 57.4 °F 30.22 in East 3.4 mph 7.0 mph 75 % 0.00 in
08:22 65.6 °F 57.8 °F 30.22 in NE 1.9 mph 6.0 mph 76 % 0.00 in
08:27 65.7 °F 57.6 °F 30.22 in ENE 1.2 mph 4.6 mph 75 % 0.00 in
08:32 65.9 °F 58.1 °F 30.22 in NE 1.9 mph 4.6 mph 76 % 0.00 in
08:38 66.1 °F 58.3 °F 30.23 in ENE 1.9 mph 3.5 mph 76 % 0.00 in
08:43 66.3 °F 58.5 °F 30.23 in ENE 3.6 mph 6.9 mph 76 % 0.00 in
08:48 66.5 °F 58.7 °F 30.23 in NE 3.8 mph 8.1 mph 76 % 0.00 in
08:53 66.6 °F 58.4 °F 30.23 in ENE 2.5 mph 6.9 mph 75 % 0.00 in
08:58 66.7 °F 57.8 °F 30.23 in NE 3.0 mph 8.0 mph 73 % 0.00 in
09:03 66.9 °F 58.0 °F 30.23 in ENE 2.6 mph 3.5 mph 73 % 0.00 in
09:04 67.0 °F 58.1 °F 30.23 in ENE 0.8 mph 3.5 mph 73 % 0.00 in
09:09 67.2 °F 58.2 °F 30.23 in East 0.5 mph 2.3 mph 73 % 0.00 in
09:14 67.5 °F 58.5 °F 30.23 in ESE 0.5 mph 2.3 mph 73 % 0.00 in
09:20 67.7 °F 58.7 °F 30.23 in NE 1.0 mph 3.5 mph 73 % 0.00 in
09:25 67.9 °F 58.1 °F 30.23 in NE 1.4 mph 5.0 mph 71 % 0.00 in
09:30 68.0 °F 57.8 °F 30.24 in NE 1.2 mph 3.5 mph 70 % 0.00 in
09:35 68.2 °F 58.4 °F 30.24 in NE 0.9 mph 1.2 mph 71 % 0.00 in
09:40 68.4 °F 58.2 °F 30.24 in NE 3.4 mph 4.6 mph 70 % 0.00 in
09:45 68.6 °F 58.0 °F 30.24 in NE 0.9 mph 3.0 mph 69 % 0.00 in
09:50 69.0 °F 58.8 °F 30.24 in ENE 1.2 mph 3.5 mph 70 % 0.00 in
09:55 69.5 °F 58.9 °F 30.24 in NE 0.9 mph 2.3 mph 69 % 0.00 in
10:00 69.9 °F 59.3 °F 30.23 in NE 1.0 mph 2.3 mph 69 % 0.00 in
10:05 70.2 °F 58.7 °F 30.24 in NE 2.9 mph 6.9 mph 67 % 0.00 in
10:11 70.3 °F 58.8 °F 30.24 in ENE 1.2 mph 3.5 mph 67 % 0.00 in
10:16 70.4 °F 58.5 °F 30.24 in ENE 3.0 mph 6.0 mph 66 % 0.00 in
10:21 70.4 °F 58.5 °F 30.24 in NE 2.0 mph 5.0 mph 66 % 0.00 in
10:26 70.4 °F 59.0 °F 30.24 in Calm   5.0 mph 67 % 0.00 in
10:31 70.5 °F 57.7 °F 30.24 in ENE 2.0 mph 7.0 mph 64 % 0.00 in
10:36 70.5 °F 58.2 °F 30.24 in Calm   5.0 mph 65 % 0.00 in
10:41 70.6 °F 58.3 °F 30.24 in Calm   7.0 mph 65 % 0.00 in
10:46 71.0 °F 59.5 °F 30.24 in NE 1.0 mph 5.0 mph 67 % 0.00 in
10:51 71.5 °F 59.1 °F 30.24 in NE 1.0 mph 2.0 mph 65 % 0.00 in
10:56 71.8 °F 58.5 °F 30.24 in ENE 1.0 mph 5.0 mph 63 % 0.00 in
11:01 71.9 °F 57.3 °F 30.24 in ENE 1.9 mph 3.5 mph 60 % 0.00 in
11:06 72.0 °F 57.8 °F 30.24 in ENE 0.6 mph 4.6 mph 61 % 0.00 in
11:11 72.3 °F 57.6 °F 30.24 in ENE 2.6 mph 4.6 mph 60 % 0.00 in
11:16 73.1 °F 57.9 °F 30.24 in ENE 1.7 mph 3.5 mph 59 % 0.00 in
11:21 74.1 °F 57.9 °F 30.23 in ENE 2.1 mph 3.5 mph 57 % 0.00 in
11:26 74.9 °F 59.1 °F 30.23 in NNE 2.8 mph 3.5 mph 58 % 0.00 in
11:31 75.8 °F 58.5 °F 30.23 in NNE 1.1 mph 3.5 mph 55 % 0.00 in
11:36 76.8 °F 58.4 °F 30.23 in NE 1.0 mph 2.3 mph 53 % 0.00 in
11:41 77.4 °F 58.4 °F 30.23 in North 2.1 mph 6.9 mph 52 % 0.00 in
11:47 77.3 °F 57.2 °F 30.23 in NE 3.2 mph 6.0 mph 50 % 0.00 in
11:52 77.2 °F 57.7 °F 30.23 in NE 2.2 mph 3.5 mph 51 % 0.00 in
11:57 77.7 °F 58.7 °F 30.23 in North 4.1 mph 9.2 mph 52 % 0.00 in
12:02 78.2 °F 60.2 °F 30.23 in North 3.9 mph 6.0 mph 54 % 0.00 in
12:07 78.7 °F 58.5 °F 30.23 in NNE 3.9 mph 5.8 mph 50 % 0.00 in
12:12 78.9 °F 58.7 °F 30.22 in NE 3.0 mph 4.6 mph 50 % 0.00 in
12:17 78.9 °F 58.7 °F 30.22 in NE 2.6 mph 3.5 mph 50 % 0.00 in
12:22 79.1 °F 58.9 °F 30.22 in NNE 2.3 mph 3.5 mph 50 % 0.00 in
12:27 79.2 °F 57.2 °F 30.22 in ENE 4.2 mph 9.2 mph 47 % 0.00 in
12:32 79.3 °F 58.5 °F 30.22 in NNE 2.3 mph 4.6 mph 49 % 0.00 in
12:37 79.2 °F 57.8 °F 30.22 in ENE 1.9 mph 2.3 mph 48 % 0.00 in
12:43 79.2 °F 56.0 °F 30.22 in ENE 2.4 mph 6.9 mph 45 % 0.00 in
12:48 78.9 °F 56.4 °F 30.22 in ENE 3.4 mph 4.0 mph 46 % 0.00 in
12:53 78.4 °F 55.3 °F 30.22 in East 3.2 mph 5.0 mph 45 % 0.00 in
12:58 78.6 °F 56.7 °F 30.21 in NNE 3.4 mph 4.6 mph 47 % 0.00 in
13:03 78.7 °F 56.2 °F 30.21 in NNE 3.1 mph 4.6 mph 46 % 0.00 in
13:08 78.7 °F 56.8 °F 30.21 in NE 1.7 mph 7.0 mph 47 % 0.00 in
13:13 78.5 °F 56.0 °F 30.21 in NE 2.1 mph 6.9 mph 46 % 0.00 in
13:18 78.5 °F 54.1 °F 30.21 in North 2.6 mph 3.5 mph 43 % 0.00 in
13:23 78.6 °F 55.5 °F 30.21 in NE 3.0 mph 5.0 mph 45 % 0.00 in
13:28 78.4 °F 54.0 °F 30.21 in NE 2.3 mph 4.6 mph 43 % 0.00 in
13:34 78.3 °F 54.0 °F 30.21 in ENE 2.2 mph 3.5 mph 43 % 0.00 in
13:39 78.5 °F 54.8 °F 30.20 in NE 1.5 mph 3.5 mph 44 % 0.00 in
13:44 78.6 °F 54.2 °F 30.20 in ENE 1.5 mph 4.6 mph 43 % 0.00 in
13:49 78.9 °F 55.1 °F 30.20 in ENE 1.9 mph 6.0 mph 44 % 0.00 in
13:54 78.9 °F 52.5 °F 30.20 in ENE 0.3 mph 1.2 mph 40 % 0.00 in
13:59 79.2 °F 53.5 °F 30.20 in ENE 0.7 mph 2.3 mph 41 % 0.00 in
14:04 79.5 °F 55.0 °F 30.20 in Calm   1.2 mph 43 % 0.00 in
14:09 79.9 °F 54.1 °F 30.20 in NE 1.5 mph 3.5 mph 41 % 0.00 in
14:14 80.1 °F 53.6 °F 30.20 in NNE 2.2 mph 3.0 mph 40 % 0.00 in
14:19 80.0 °F 52.8 °F 30.20 in ENE 0.8 mph 4.0 mph 39 % 0.00 in
14:25 79.7 °F 53.9 °F 30.19 in ENE 1.8 mph 3.5 mph 41 % 0.00 in
14:30 79.8 °F 55.9 °F 30.20 in NW 0.5 mph 3.5 mph 44 % 0.00 in
14:35 80.0 °F 53.5 °F 30.19 in North 4.0 mph 6.9 mph 40 % 0.00 in
14:40 80.2 °F 53.7 °F 30.19 in NNW 2.8 mph 4.6 mph 40 % 0.00 in
14:45 80.4 °F 53.2 °F 30.19 in WNW 0.4 mph 2.3 mph 39 % 0.00 in
14:50 80.7 °F 55.5 °F 30.19 in NNE 0.5 mph 2.0 mph 42 % 0.00 in
14:55 80.9 °F 55.0 °F 30.19 in NNE 1.5 mph 3.5 mph 41 % 0.00 in
15:00 80.8 °F 49.0 °F 30.18 in SE 0.4 mph 1.2 mph 33 % 0.00 in
15:05 80.8 °F 52.1 °F 30.18 in Calm     37 % 0.00 in
15:10 80.8 °F 54.9 °F 30.18 in SSW 0.2 mph 1.2 mph 41 % 0.00 in
15:16 80.7 °F 55.5 °F 30.18 in SW 1.0 mph 5.0 mph 42 % 0.00 in
15:21 80.7 °F 54.1 °F 30.18 in Calm   5.0 mph 40 % 0.00 in
15:26 80.9 °F 54.3 °F 30.18 in West 1.0 mph 5.0 mph 40 % 0.00 in
15:31 80.8 °F 54.2 °F 30.18 in NW 1.0 mph 3.0 mph 40 % 0.00 in
15:36 80.5 °F 53.3 °F 30.18 in Calm   2.0 mph 39 % 0.00 in
15:41 80.4 °F 56.5 °F 30.18 in NNE 2.0 mph 5.0 mph 44 % 0.00 in
15:46 80.2 °F 51.6 °F 30.18 in Calm   2.0 mph 37 % 0.00 in
15:51 80.2 °F 55.0 °F 30.18 in NE 2.0 mph 5.0 mph 42 % 0.00 in
15:56 80.0 °F 51.4 °F 30.18 in WNW 1.0 mph 4.0 mph 37 % 0.00 in
16:01 80.1 °F 54.9 °F 30.17 in NW 0.3 mph 3.5 mph 42 % 0.00 in
16:06 79.8 °F 51.2 °F 30.18 in West 1.0 mph 3.0 mph 37 % 0.00 in
16:11 79.5 °F 47.9 °F 30.18 in WSW 2.0 mph 4.0 mph 33 % 0.00 in
16:16 79.8 °F 48.2 °F 30.18 in Calm   3.0 mph 33 % 0.00 in
16:21 80.2 °F 48.5 °F 30.17 in Calm   4.0 mph 33 % 0.00 in
16:26 80.2 °F 48.5 °F 30.17 in SW 1.0 mph 3.0 mph 33 % 0.00 in
16:31 80.2 °F 48.5 °F 30.17 in Calm   3.0 mph 33 % 0.00 in
16:36 79.9 °F 52.7 °F 30.17 in SSE 1.0 mph 3.0 mph 39 % 0.00 in
16:41 79.9 °F 56.7 °F 30.18 in Calm   6.0 mph 45 % 0.00 in
16:46 79.2 °F 56.7 °F 30.18 in SSE 3.0 mph 7.0 mph 46 % 0.00 in
16:51 78.8 °F 57.4 °F 30.18 in SSE 1.0 mph 3.0 mph 48 % 0.00 in
16:56 78.6 °F 56.7 °F 30.18 in SSE 1.0 mph 3.0 mph 47 % 0.00 in
17:01 77.7 °F 56.4 °F 30.18 in SSE 2.4 mph 8.1 mph 48 % 0.00 in
17:06 77.1 °F 56.5 °F 30.17 in SE 1.5 mph 4.6 mph 49 % 0.00 in
17:11 76.3 °F 56.8 °F 30.17 in SSE 1.3 mph 4.6 mph 51 % 0.00 in
17:16 75.5 °F 56.1 °F 30.17 in South 2.6 mph 6.9 mph 51 % 0.00 in
17:21 75.1 °F 56.8 °F 30.17 in SE 1.2 mph 8.0 mph 53 % 0.00 in
17:26 74.6 °F 56.9 °F 30.17 in ESE 2.7 mph 5.0 mph 54 % 0.00 in
17:31 74.0 °F 56.3 °F 30.17 in SSW 2.8 mph 6.9 mph 54 % 0.00 in
17:36 73.5 °F 56.8 °F 30.17 in SSW 0.4 mph 3.5 mph 56 % 0.00 in
17:42 73.4 °F 57.2 °F 30.18 in South 0.9 mph 3.5 mph 57 % 0.00 in
17:47 73.1 °F 57.0 °F 30.18 in SSW 0.4 mph 4.6 mph 57 % 0.00 in
17:52 72.8 °F 56.7 °F 30.17 in SE 2.6 mph 4.6 mph 57 % 0.00 in
17:57 72.6 °F 57.0 °F 30.17 in SE 1.9 mph 4.6 mph 58 % 0.00 in
18:02 72.4 °F 56.8 °F 30.17 in SSE 1.7 mph 3.5 mph 58 % 0.00 in
18:07 71.9 °F 56.3 °F 30.17 in SSE 1.5 mph 3.5 mph 58 % 0.00 in
18:12 71.6 °F 56.5 °F 30.17 in SE 0.5 mph 2.0 mph 59 % 0.00 in
18:17 71.5 °F 56.9 °F 30.17 in South 1.2 mph 2.3 mph 60 % 0.00 in
18:22 71.2 °F 56.6 °F 30.17 in SSE 3.4 mph 6.0 mph 60 % 0.00 in
18:27 70.9 °F 56.3 °F 30.17 in South 1.1 mph 3.5 mph 60 % 0.00 in
18:33 70.8 °F 56.2 °F 30.16 in South 0.5 mph 2.3 mph 60 % 0.00 in
18:38 70.6 °F 56.5 °F 30.17 in WSW 1.6 mph 6.0 mph 61 % 0.00 in
18:43 70.4 °F 56.3 °F 30.17 in West 1.0 mph 2.3 mph 61 % 0.00 in
18:48 70.2 °F 56.1 °F 30.16 in Calm   1.2 mph 61 % 0.00 in
18:58 69.8 °F 56.2 °F 30.17 in Calm   3.0 mph 62 % 0.00 in
19:03 69.5 °F 56.3 °F 30.17 in SE 0.8 mph 3.5 mph 63 % 0.00 in
19:08 69.3 °F 56.6 °F 30.17 in Calm   2.3 mph 64 % 0.00 in
19:13 69.1 °F 56.4 °F 30.17 in Calm   1.2 mph 64 % 0.00 in
19:18 68.9 °F 56.6 °F 30.17 in SE 0.7 mph 3.0 mph 65 % 0.00 in
19:24 68.7 °F 56.9 °F 30.17 in SE 0.7 mph 2.3 mph 66 % 0.00 in
19:29 68.5 °F 57.1 °F 30.17 in Calm   1.2 mph 67 % 0.00 in
19:34 68.2 °F 56.8 °F 30.17 in Calm   2.3 mph 67 % 0.00 in
19:39 67.9 °F 56.9 °F 30.17 in SE 0.3 mph 3.5 mph 68 % 0.00 in
19:44 67.7 °F 57.2 °F 30.17 in SSE 1.1 mph 3.5 mph 69 % 0.00 in
19:49 67.6 °F 57.1 °F 30.17 in SSE 0.3 mph 1.0 mph 69 % 0.00 in
19:54 67.5 °F 57.4 °F 30.17 in SSE 0.2 mph 1.2 mph 70 % 0.00 in
19:59 67.4 °F 57.3 °F 30.17 in SSE 0.6 mph 2.3 mph 70 % 0.00 in
20:04 67.2 °F 57.1 °F 30.18 in SSE 0.1 mph 2.3 mph 70 % 0.00 in
20:09 67.2 °F 57.5 °F 30.18 in Calm   1.2 mph 71 % 0.00 in
20:15 67.0 °F 57.3 °F 30.18 in Calm     71 % 0.00 in
20:20 66.8 °F 57.5 °F 30.18 in Calm   2.3 mph 72 % 0.00 in
20:25 66.6 °F 57.3 °F 30.18 in Calm   1.2 mph 72 % 0.00 in
20:30 66.4 °F 57.5 °F 30.18 in Calm     73 % 0.00 in
20:35 66.2 °F 57.3 °F 30.19 in Calm     73 % 0.00 in
20:40 66.1 °F 57.6 °F 30.19 in Calm     74 % 0.00 in
20:45 66.0 °F 57.5 °F 30.19 in SSE 0.2 mph 1.2 mph 74 % 0.00 in
20:50 65.9 °F 57.4 °F 30.18 in Calm   1.0 mph 74 % 0.00 in
20:55 65.8 °F 57.3 °F 30.19 in SSE 0.2 mph 1.2 mph 74 % 0.00 in
21:00 65.6 °F 57.1 °F 30.18 in SSE 0.3 mph 2.3 mph 74 % 0.00 in
21:06 65.6 °F 57.1 °F 30.18 in Calm   2.0 mph 74 % 0.00 in
21:11 65.6 °F 57.0 °F 30.18 in Calm   1.0 mph 74 % 0.00 in
21:16 65.5 °F 57.0 °F 30.18 in Calm   1.0 mph 74 % 0.00 in
21:21 65.4 °F 56.9 °F 30.19 in Calm   1.0 mph 74 % 0.00 in
21:26 65.4 °F 56.9 °F 30.19 in Calm   2.0 mph 74 % 0.00 in
21:31 65.3 °F 56.8 °F 30.19 in Calm   1.0 mph 74 % 0.00 in
21:36 65.2 °F 56.7 °F 30.18 in Calm   1.0 mph 74 % 0.00 in
21:41 65.2 °F 56.7 °F 30.18 in Calm   1.0 mph 74 % 0.00 in
21:46 65.0 °F 56.5 °F 30.18 in Calm   1.0 mph 74 % 0.00 in
21:51 64.9 °F 56.8 °F 30.18 in Calm   1.0 mph 75 % 0.00 in
21:56 64.8 °F 56.7 °F 30.18 in Calm   1.0 mph 75 % 0.00 in
22:01 64.7 °F 56.6 °F 30.18 in Calm   1.2 mph 75 % 0.00 in
22:06 64.6 °F 56.5 °F 30.19 in SSE 0.9 mph 2.3 mph 75 % 0.00 in
22:11 64.5 °F 56.4 °F 30.19 in SSE 0.4 mph 1.2 mph 75 % 0.00 in
22:16 64.3 °F 56.2 °F 30.19 in Calm   1.2 mph 75 % 0.00 in
22:21 64.2 °F 56.5 °F 30.19 in Calm   1.2 mph 76 % 0.00 in
22:26 64.1 °F 56.4 °F 30.19 in South 0.6 mph 1.2 mph 76 % 0.00 in
22:31 64.0 °F 56.6 °F 30.19 in SW 0.7 mph 2.3 mph 77 % 0.00 in
22:36 63.9 °F 56.5 °F 30.19 in SW 1.0 mph 2.3 mph 77 % 0.00 in
22:41 63.8 °F 56.8 °F 30.19 in SW 1.0 mph 2.3 mph 78 % 0.00 in
22:46 63.7 °F 56.7 °F 30.19 in Calm     78 % 0.00 in
22:51 63.6 °F 56.6 °F 30.19 in Calm     78 % 0.00 in
22:57 63.5 °F 56.9 °F 30.19 in Calm     79 % 0.00 in
23:02 63.4 °F 56.8 °F 30.19 in Calm     79 % 0.00 in
23:07 63.2 °F 56.6 °F 30.19 in Calm     79 % 0.00 in
23:12 63.1 °F 56.8 °F 30.19 in Calm     80 % 0.00 in
23:17 62.9 °F 56.6 °F 30.19 in Calm     80 % 0.00 in
23:22 62.7 °F 56.4 °F 30.19 in Calm     80 % 0.00 in
23:27 62.4 °F 56.1 °F 30.19 in Calm     80 % 0.00 in
23:32 62.2 °F 56.3 °F 30.19 in Calm     81 % 0.00 in
23:37 62.0 °F 56.1 °F 30.19 in Calm     81 % 0.00 in
23:42 61.7 °F 56.1 °F 30.18 in Calm     82 % 0.00 in
23:48 61.5 °F 56.0 °F 30.18 in Calm     82 % 0.00 in
23:53 61.3 °F 55.8 °F 30.18 in Calm     82 % 0.00 in
23:58 61.1 °F 55.6 °F 30.18 in Calm     82 % 0.00 in
Crab Meadow Weather
Compliments of Weather Underground - 2.75 mb

Script developed by  Jim McMurry - jmcmurry@mwt.net Adapted for the template by  Wim van der Kuil - Leuven-Template.eu

Lightning: The chances of being hit by lightning is 1:28,500.